Albany Township, Maine
Current Conditions -  °F | °C
As of 8:52 AM on Sunday 23 Nov 2014 (Local Time) from KBML Reporting Station
Haze Haze  
Wind Chill: 37°   Ceiling: 1500
Heat Index: 37°   Visibility: 5mi
Dew Point: 35°   Wind: 0mph
Humidity: 93%   Direction: NA
Pressure: 30.01"   Gusts: NA
Location:  44.3718°N, 70.8421°W
Report Text: KBML 231352Z AUTO 00000KT 5SM BR OVC015 03/02 A3001 RMK AO2 SLP175 T00280017
Loading
Personal Weather Stations






























Interactive Weather Map New forecast layout! Learn more

10-Day Weather Forecast

Advertisements
Track Severe Weather on mobile